TimeCDT,TemperatureF,Dew PointF,Humidity,Sea Level PressureIn,VisibilityMPH,Wind Direction,Wind SpeedMPH,Gust SpeedMPH,PrecipitationIn,Events,Conditions,WindDirDegrees,DateUTC
12:53 AM,48.9,39.0,69,29.77,10.0,West,5.8,-,N/A,,Clear,280,2012-10-18 05:53:00
1:53 AM,46.9,39.0,74,29.78,10.0,WSW,5.8,-,N/A,,Clear,250,2012-10-18 06:53:00
2:53 AM,46.9,37.9,71,29.78,10.0,West,6.9,-,N/A,,Clear,260,2012-10-18 07:53:00
3:53 AM,46.0,37.0,71,29.78,10.0,WSW,6.9,-,N/A,,Clear,250,2012-10-18 08:53:00
4:53 AM,45.0,37.0,74,29.80,10.0,West,6.9,-,N/A,,Clear,260,2012-10-18 09:53:00
5:53 AM,45.0,36.0,71,29.81,10.0,West,6.9,-,N/A,,Clear,260,2012-10-18 10:53:00
6:53 AM,44.1,36.0,73,29.82,10.0,West,8.1,-,N/A,,Clear,260,2012-10-18 11:53:00
7:53 AM,46.9,32.0,56,29.84,10.0,West,9.2,-,N/A,,Clear,280,2012-10-18 12:53:00
8:53 AM,48.0,33.1,56,29.85,10.0,West,10.4,-,N/A,,Clear,270,2012-10-18 13:53:00
9:53 AM,53.1,30.9,43,29.85,10.0,WNW,10.4,19.6,N/A,,Clear,290,2012-10-18 14:53:00
10:53 AM,55.9,28.0,34,29.86,10.0,WNW,12.7,27.6,N/A,,Clear,290,2012-10-18 15:53:00
11:53 AM,57.9,27.0,31,29.84,10.0,WNW,16.1,-,N/A,,Clear,290,2012-10-18 16:53:00
12:53 PM,60.1,27.0,28,29.82,10.0,WNW,16.1,25.3,N/A,,Clear,290,2012-10-18 17:53:00
1:19 PM,60.8,28.4,29,29.82,2.0,West,18.4,32.2,N/A,,Haze,260,2012-10-18 18:19:00
1:29 PM,60.8,26.6,27,29.82,3.0,West,23.0,32.2,N/A,,Haze,280,2012-10-18 18:29:00
1:53 PM,61.0,26.1,26,29.80,10.0,West,23.0,29.9,N/A,,Clear,260,2012-10-18 18:53:00
2:22 PM,60.8,26.6,27,29.80,2.0,West,21.9,29.9,N/A,,Haze,280,2012-10-18 19:22:00
2:33 PM,60.8,24.8,25,29.80,3.0,West,19.6,34.5,N/A,,Haze,280,2012-10-18 19:33:00
2:53 PM,62.1,26.1,25,29.78,10.0,West,20.7,34.5,N/A,,Clear,270,2012-10-18 19:53:00
3:53 PM,63.0,25.0,24,29.77,10.0,West,19.6,28.8,N/A,,Clear,280,2012-10-18 20:53:00
4:53 PM,62.1,24.1,23,29.77,10.0,WNW,16.1,26.5,N/A,,Clear,290,2012-10-18 21:53:00
5:53 PM,61.0,24.1,24,29.77,10.0,West,16.1,24.2,N/A,,Clear,280,2012-10-18 22:53:00
6:53 PM,57.0,28.0,33,29.78,10.0,West,9.2,-,N/A,,Overcast,270,2012-10-18 23:53:00
7:53 PM,55.0,30.0,38,29.79,10.0,WSW,8.1,-,N/A,,Overcast,250,2012-10-19 00:53:00
10:53 PM,55.9,28.0,34,29.78,5.0,West,11.5,-,N/A,,Haze,260,2012-10-19 03:53:00
11:53 PM,57.0,27.0,32,29.77,5.0,West,10.4,-,N/A,,Haze,260,2012-10-19 04:53:00